Campbell AAF (Fort Campbell) Air Field Fort Campbell, Hopkinsville US
ICAO: KHOP
IATA: HOP
Category: Medium
Scheduled Services: No

Elevation: 573 ft
TransAlt. 18000 ft.

Airport Communications:
APP:118.1
ATIS:125.175
CLNC DEL:138.8
DEP:118.1
GND:121.8
PMSV METRO:34.33
EAGLE CON:65.2
PTD:130.65
TWR:120.9

KHOP Zoom In..

Runways:

(A) RW 05 length 11822 ft width 200 ft
---- / hdg 45

(B) RW 18 length 4001 ft width 155 ft
---- / hdg 180

(C) RW 23 length 11822 ft width 200 ft
ILS 111.90 / hdg 225

(D) RW 36 length 4001 ft width 155 ft
---- / hdg 360

Location; KHOP
Day. 21 / Time. 13.56 Zulu
* Altimeter: 30.11
* Temperature: 22° c. 71.6°f.
* Wind from: 070° Speed 05 kn.
Dewpoint: 20° c.
Visibility: 10 Statute Miles.
Clouds: Scattered 2300 ft.

KHOP 211356Z AUTO 07005KT 10SM SCT023 22/20 A3011 RMK AO2 SLP194 T02240195


Wind From 070°
Speed 05 kn.

 
 
jpsmedia.com for Web Design SOUNDCLOUD worldairports.se 2018   terms of use